createdAt,value
2018-02-15T00:00:39.434Z,31.10
2018-02-15T00:03:06.922Z,29.57
2018-02-15T00:05:34.562Z,30.70
2018-02-15T00:08:02.085Z,28.70
2018-02-15T00:10:31.097Z,25.30
2018-02-15T00:12:59.466Z,26.97
2018-02-15T00:15:27.741Z,24.37
2018-02-15T00:17:56.018Z,24.60
2018-02-15T00:20:24.877Z,25.00
2018-02-15T00:22:52.465Z,22.90
2018-02-15T00:25:19.951Z,22.90
2018-02-15T00:27:47.433Z,23.40
2018-02-15T00:30:14.927Z,23.50
2018-02-15T00:32:42.511Z,21.60
2018-02-15T00:35:10.780Z,22.50
2018-02-15T00:37:38.411Z,21.83
2018-02-15T00:40:05.899Z,21.97
2018-02-15T00:42:34.166Z,21.40
2018-02-15T00:45:01.743Z,20.80
2018-02-15T00:47:30.004Z,22.60
2018-02-15T00:49:57.495Z,22.80
2018-02-15T00:52:25.002Z,22.27
2018-02-15T00:54:52.504Z,22.67
2018-02-15T00:57:20.746Z,24.63
2018-02-15T00:59:48.262Z,24.80
2018-02-15T01:02:15.746Z,24.17
2018-02-15T01:04:43.226Z,24.20
2018-02-15T01:07:10.762Z,29.03
2018-02-15T01:09:38.294Z,25.73
2018-02-15T01:12:05.778Z,25.57
2018-02-15T01:14:33.382Z,26.43
2018-02-15T01:17:01.661Z,24.93
2018-02-15T01:19:29.933Z,29.27
2018-02-15T01:21:58.200Z,30.13
2018-02-15T01:24:25.778Z,28.80
2018-02-15T01:26:54.557Z,28.40
2018-02-15T01:29:22.823Z,30.40
2018-02-15T01:31:50.319Z,29.57
2018-02-15T01:34:17.854Z,30.70
2018-02-15T01:36:46.117Z,30.00
2018-02-15T01:39:13.681Z,29.20
2018-02-15T01:41:41.164Z,30.10
2018-02-15T01:44:08.721Z,28.50
2018-02-15T01:46:36.953Z,28.13
2018-02-15T01:49:04.479Z,28.63
2018-02-15T01:51:32.008Z,27.90
2018-02-15T01:54:00.287Z,25.97
2018-02-15T01:56:28.538Z,29.40
2018-02-15T01:58:56.051Z,29.73
2018-02-15T02:01:23.532Z,28.20
2018-02-15T02:03:51.034Z,28.67
2018-02-15T02:06:19.298Z,27.67
2018-02-15T02:08:47.587Z,29.77
2018-02-15T02:11:15.850Z,27.57
2018-02-15T02:13:43.352Z,27.70
2018-02-15T02:16:10.884Z,30.33
2018-02-15T02:18:39.132Z,28.80
2018-02-15T02:21:06.650Z,31.40
2018-02-15T02:23:34.134Z,29.83
2018-02-15T02:26:01.730Z,27.30
2018-02-15T02:28:29.995Z,26.10
2018-02-15T02:30:57.567Z,30.47
2018-02-15T02:33:25.821Z,28.43
2018-02-15T02:35:54.096Z,26.87
2018-02-15T02:38:21.590Z,27.60
2018-02-15T02:40:49.840Z,25.97
2018-02-15T02:43:17.335Z,26.93
2018-02-15T02:45:44.819Z,25.40
2018-02-15T02:48:12.307Z,25.83
2018-02-15T02:50:39.803Z,24.60
2018-02-15T02:53:08.061Z,24.50
2018-02-15T02:55:35.546Z,25.77
2018-02-15T02:58:03.095Z,24.20
2018-02-15T03:00:31.349Z,26.33
2018-02-15T03:02:58.919Z,24.00
2018-02-15T03:05:27.171Z,22.07
2018-02-15T03:07:54.754Z,24.40
2018-02-15T03:10:23.014Z,24.97
2018-02-15T03:12:50.510Z,21.60
2018-02-15T03:15:17.994Z,22.80
2018-02-15T03:17:45.488Z,22.27
2018-02-15T03:20:13.074Z,23.20
2018-02-15T03:22:41.322Z,24.03
2018-02-15T03:25:08.821Z,23.90
2018-02-15T03:27:36.325Z,25.57
2018-02-15T03:30:03.855Z,28.10
2018-02-15T03:32:31.346Z,27.33
2018-02-15T03:34:58.941Z,28.30
2018-02-15T03:37:27.187Z,25.30
2018-02-15T03:39:54.673Z,25.07
2018-02-15T03:42:22.939Z,24.00
2018-02-15T03:44:50.425Z,24.07
2018-02-15T03:47:17.909Z,21.13
2018-02-15T03:49:45.403Z,22.27
2018-02-15T03:52:12.897Z,22.73
2018-02-15T03:54:41.147Z,21.37
2018-02-15T03:57:08.651Z,22.23
2018-02-15T03:59:36.134Z,22.73
2018-02-15T04:02:03.612Z,21.87
2018-02-15T04:04:31.110Z,20.70
2018-02-15T04:06:58.658Z,22.87
2018-02-15T04:09:26.930Z,25.63
2018-02-15T04:11:55.188Z,22.40
2018-02-15T04:14:23.438Z,22.40
2018-02-15T04:16:50.934Z,24.53
2018-02-15T04:19:18.442Z,23.93
2018-02-15T04:21:45.921Z,22.77
2018-02-15T04:24:13.410Z,21.70
2018-02-15T04:26:41.677Z,23.40
2018-02-15T04:29:09.165Z,23.77
2018-02-15T04:31:36.711Z,23.23
2018-02-15T04:34:04.979Z,29.40
2018-02-15T04:36:32.461Z,26.60
2018-02-15T04:39:00.037Z,26.60
2018-02-15T04:41:27.535Z,25.10
2018-02-15T04:43:55.009Z,25.90
2018-02-15T04:46:22.503Z,26.30
2018-02-15T04:48:50.047Z,24.47
2018-02-15T04:51:18.307Z,25.37
2018-02-15T04:53:46.599Z,24.43
2018-02-15T04:56:14.870Z,24.20
2018-02-15T04:58:43.123Z,25.63
2018-02-15T05:01:10.614Z,26.07
2018-02-15T05:03:38.993Z,24.20
2018-02-15T05:06:07.250Z,26.03
2018-02-15T05:08:34.800Z,25.03
2018-02-15T05:11:02.376Z,23.87
2018-02-15T05:13:30.626Z,23.10
2018-02-15T05:15:58.210Z,22.90
2018-02-15T05:18:26.477Z,24.77
2018-02-15T05:20:53.969Z,24.00
2018-02-15T05:23:21.505Z,22.80
2018-02-15T05:25:49.773Z,24.40
2018-02-15T05:28:17.346Z,23.77
2018-02-15T05:30:45.597Z,24.10
2018-02-15T05:33:13.095Z,23.90
2018-02-15T05:35:41.348Z,23.27
2018-02-15T05:38:08.829Z,23.87
2018-02-15T05:40:37.103Z,22.00
2018-02-15T05:43:05.351Z,21.87
2018-02-15T05:45:32.841Z,24.07
2018-02-15T05:48:00.387Z,22.50
2018-02-15T05:50:28.638Z,23.83
2018-02-15T05:52:56.117Z,24.23
2018-02-15T05:55:24.391Z,21.77
2018-02-15T05:57:52.667Z,22.67
2018-02-15T06:00:20.168Z,23.87
2018-02-15T06:02:47.666Z,24.63
2018-02-15T06:05:15.173Z,22.30
2018-02-15T06:07:42.668Z,22.93
2018-02-15T06:10:10.226Z,28.60
2018-02-15T06:12:37.720Z,26.27
2018-02-15T06:15:05.209Z,23.50
2018-02-15T06:17:32.712Z,23.27
2018-02-15T06:20:00.190Z,20.87
2018-02-15T06:22:28.446Z,21.97
2018-02-15T06:24:55.948Z,21.00
2018-02-15T06:27:24.195Z,21.57
2018-02-15T06:29:51.678Z,25.67
2018-02-15T06:32:20.054Z,22.50
2018-02-15T06:34:48.331Z,22.23
2018-02-15T06:37:16.601Z,22.13
2018-02-15T06:39:44.887Z,22.00
2018-02-15T06:42:13.155Z,21.23
2018-02-15T06:44:41.413Z,22.17
2018-02-15T06:47:08.907Z,22.90
2018-02-15T06:49:36.415Z,20.83
2018-02-15T06:52:03.912Z,23.30
2018-02-15T06:54:32.184Z,20.37
2018-02-15T06:57:00.447Z,20.83
2018-02-15T06:59:27.927Z,21.93
2018-02-15T07:01:56.191Z,21.40
2018-02-15T07:04:24.454Z,22.80
2018-02-15T07:06:51.936Z,20.70
2018-02-15T07:09:20.199Z,21.33
2018-02-15T07:11:48.446Z,22.17
2018-02-15T07:14:15.934Z,20.93
2018-02-15T07:16:44.202Z,21.13
2018-02-15T07:19:11.698Z,23.00
2018-02-15T07:21:39.190Z,20.37
2018-02-15T07:24:06.690Z,21.10
2018-02-15T07:26:34.942Z,20.03
2018-02-15T07:29:02.585Z,20.08
2018-02-15T07:31:30.078Z,19.70
2018-02-15T07:33:57.567Z,17.90
2018-02-15T07:36:25.504Z,18.70
2018-02-15T07:38:52.968Z,18.50
2018-02-15T07:41:20.467Z,19.40
2018-02-15T07:43:48.333Z,19.47
2018-02-15T07:46:15.835Z,19.83
2018-02-15T07:48:43.331Z,18.70
2018-02-15T07:51:11.577Z,22.13
2018-02-15T07:53:40.621Z,20.23
2018-02-15T07:56:08.135Z,20.77
2018-02-15T07:58:36.382Z,21.27
2018-02-15T08:01:03.884Z,19.40
2018-02-15T08:03:32.154Z,19.10
2018-02-15T08:06:00.434Z,18.13
2018-02-15T08:08:28.694Z,18.87
2018-02-15T08:10:56.182Z,19.27
2018-02-15T08:13:23.717Z,17.83
2018-02-15T08:15:51.986Z,18.87
2018-02-15T08:18:19.474Z,18.10
2018-02-15T08:20:47.746Z,18.30
2018-02-15T08:23:16.008Z,20.70
2018-02-15T08:25:43.826Z,19.20
2018-02-15T08:28:11.314Z,19.53
2018-02-15T08:30:38.810Z,18.87
2018-02-15T08:33:07.084Z,18.50
2018-02-15T08:35:35.350Z,19.80
2018-02-15T08:38:03.607Z,20.07
2018-02-15T08:40:31.092Z,24.10
2018-02-15T08:42:59.417Z,21.10
2018-02-15T08:45:26.911Z,30.50
2018-02-15T08:47:55.921Z,24.47
2018-02-15T08:50:24.415Z,27.73
2018-02-15T08:52:51.903Z,23.70
2018-02-15T08:55:19.387Z,23.40
2018-02-15T08:57:46.979Z,24.10
2018-02-15T09:00:15.259Z,22.60
2018-02-15T09:02:43.509Z,23.30
2018-02-15T09:05:10.997Z,25.00
2018-02-15T09:07:39.370Z,24.53
2018-02-15T09:10:07.650Z,24.13
2018-02-15T09:12:35.906Z,24.73
2018-02-15T09:15:04.211Z,23.23
2018-02-15T09:17:31.702Z,23.87
2018-02-15T09:19:59.182Z,24.47
2018-02-15T09:22:26.670Z,21.90
2018-02-15T09:24:55.260Z,25.33
2018-02-15T09:27:23.508Z,23.87
2018-02-15T09:29:51.011Z,24.10
2018-02-15T09:32:18.546Z,23.20
2018-02-15T09:34:46.788Z,24.10
2018-02-15T09:37:14.317Z,22.73
2018-02-15T09:39:41.845Z,24.07
2018-02-15T09:42:10.096Z,22.73
2018-02-15T09:44:37.587Z,23.67
2018-02-15T09:47:05.855Z,23.50
2018-02-15T09:49:33.347Z,22.13
2018-02-15T09:52:00.869Z,24.83
2018-02-15T09:54:29.153Z,24.00
2018-02-15T09:56:56.627Z,25.20
2018-02-15T09:59:24.122Z,24.63
2018-02-15T10:01:51.615Z,24.10
2018-02-15T10:04:19.092Z,23.00
2018-02-15T10:06:47.358Z,23.83
2018-02-15T10:09:15.639Z,23.85
2018-02-15T10:11:43.909Z,22.20
2018-02-15T10:14:12.243Z,23.87
2018-02-15T10:16:39.746Z,23.60
2018-02-15T10:19:07.991Z,23.40
2018-02-15T10:21:35.482Z,22.77
2018-02-15T10:24:03.739Z,24.73
2018-02-15T10:26:32.751Z,23.80
2018-02-15T10:29:01.004Z,22.77
2018-02-15T10:31:28.502Z,22.23
2018-02-15T10:33:55.984Z,22.53
2018-02-15T10:36:23.479Z,22.63
2018-02-15T10:38:50.952Z,22.00
2018-02-15T10:41:18.425Z,22.70
2018-02-15T10:43:46.695Z,21.97
2018-02-15T10:46:14.937Z,21.23
2018-02-15T10:48:42.417Z,21.57
2018-02-15T10:51:09.913Z,20.73
2018-02-15T10:53:37.455Z,20.77
2018-02-15T10:56:05.721Z,21.50
2018-02-15T10:58:33.987Z,23.40
2018-02-15T11:01:08.665Z,22.53
2018-02-15T11:03:36.145Z,21.20
2018-02-15T11:06:03.637Z,22.57
2018-02-15T11:08:31.206Z,23.93
2018-02-15T11:10:58.722Z,23.53
2018-02-15T11:13:26.201Z,22.40
2018-02-15T11:15:53.684Z,22.70
2018-02-15T11:18:21.947Z,24.17
2018-02-15T11:20:50.238Z,22.30
2018-02-15T11:23:18.502Z,25.20
2018-02-15T11:25:46.762Z,22.93
2018-02-15T11:28:15.014Z,22.30
2018-02-15T11:30:42.496Z,23.47
2018-02-15T11:33:09.986Z,22.67
2018-02-15T11:35:38.234Z,24.33
2018-02-15T11:38:05.714Z,24.20
2018-02-15T11:40:33.974Z,23.30
2018-02-15T11:43:01.462Z,25.83
2018-02-15T11:45:28.950Z,23.40
2018-02-15T11:47:56.437Z,20.33
2018-02-15T11:50:23.920Z,23.67
2018-02-15T11:52:52.229Z,21.83
2018-02-15T11:55:19.723Z,22.00
2018-02-15T11:57:47.203Z,24.43
2018-02-15T12:00:14.701Z,22.37
2018-02-15T12:02:42.203Z,25.50
2018-02-15T12:05:09.804Z,23.90
2018-02-15T12:07:38.045Z,22.60
2018-02-15T12:10:05.573Z,22.97
2018-02-15T12:12:33.062Z,22.93
2018-02-15T12:15:00.554Z,22.97
2018-02-15T12:17:28.819Z,24.50
2018-02-15T12:19:57.106Z,23.83
2018-02-15T12:22:25.360Z,23.83
2018-02-15T12:24:53.639Z,22.60
2018-02-15T12:27:21.218Z,23.97
2018-02-15T12:29:49.475Z,24.40
2018-02-15T12:32:16.976Z,25.00
2018-02-15T12:34:45.044Z,24.53
2018-02-15T12:37:12.566Z,26.00
2018-02-15T12:39:40.064Z,21.37
2018-02-15T12:42:08.085Z,22.87
2018-02-15T12:44:37.075Z,21.57
2018-02-15T12:47:04.563Z,21.83
2018-02-15T12:49:32.801Z,21.00
2018-02-15T12:52:00.312Z,20.77
2018-02-15T12:54:27.801Z,21.07
2018-02-15T12:56:55.277Z,20.67
2018-02-15T12:59:22.869Z,21.67
2018-02-15T13:01:51.184Z,21.07
2018-02-15T13:04:18.653Z,21.10
2018-02-15T13:06:46.162Z,21.00
2018-02-15T13:09:14.411Z,22.00
2018-02-15T13:11:41.997Z,20.90
2018-02-15T13:14:10.258Z,20.50
2018-02-15T13:16:49.615Z,19.70
2018-02-15T13:19:29.874Z,20.03
2018-02-15T13:21:57.355Z,19.87
2018-02-15T13:24:25.263Z,20.53
2018-02-15T13:26:52.753Z,19.30
2018-02-15T13:29:21.017Z,19.47
2018-02-15T13:31:48.498Z,22.63
2018-02-15T13:34:16.746Z,21.27
2018-02-15T13:36:44.244Z,21.90
2018-02-15T13:39:11.724Z,20.97
2018-02-15T13:41:39.246Z,19.73
2018-02-15T13:44:07.518Z,21.47
2018-02-15T13:46:35.768Z,22.60
2018-02-15T13:49:03.331Z,26.90
2018-02-15T13:51:30.826Z,21.13
2018-02-15T13:53:58.323Z,20.83
2018-02-15T13:56:25.829Z,19.83
2018-02-15T13:58:54.101Z,18.80
2018-02-15T14:01:22.432Z,17.43
2018-02-15T14:03:49.874Z,19.17
2018-02-15T14:06:17.365Z,16.60
2018-02-15T14:08:44.853Z,19.60
2018-02-15T14:11:12.345Z,18.97
2018-02-15T14:13:39.907Z,21.73
2018-02-15T14:16:07.401Z,21.20
2018-02-15T14:18:34.896Z,19.67
2018-02-15T14:21:03.201Z,20.80
2018-02-15T14:23:31.422Z,19.77
2018-02-15T14:25:58.906Z,19.47
2018-02-15T14:28:27.167Z,18.63
2018-02-15T14:30:54.713Z,20.23
2018-02-15T14:33:22.198Z,19.93
2018-02-15T14:35:50.450Z,21.47
2018-02-15T14:38:18.694Z,20.53
2018-02-15T14:40:46.204Z,20.13
2018-02-15T14:43:14.462Z,20.63
2018-02-15T14:45:41.942Z,19.77
2018-02-15T14:48:10.194Z,21.57
2018-02-15T14:50:37.690Z,20.00
2018-02-15T14:53:05.942Z,19.40
2018-02-15T14:55:33.804Z,19.10
2018-02-15T14:58:01.291Z,20.20
2018-02-15T15:00:29.536Z,19.30
2018-02-15T15:02:57.117Z,20.30
2018-02-15T15:05:25.489Z,19.07
2018-02-15T15:07:53.735Z,19.47
2018-02-15T15:10:21.221Z,21.40
2018-02-15T15:12:48.720Z,18.70
2018-02-15T15:15:16.199Z,20.50
2018-02-15T15:17:43.693Z,20.77
2018-02-15T15:20:11.181Z,21.20
2018-02-15T15:22:38.721Z,19.97
2018-02-15T15:25:06.966Z,19.87
2018-02-15T15:27:34.457Z,21.90
2018-02-15T15:30:02.711Z,21.93
2018-02-15T15:32:31.698Z,24.17
2018-02-15T15:34:59.186Z,23.50
2018-02-15T15:37:27.458Z,24.40
2018-02-15T15:39:54.932Z,26.23
2018-02-15T15:42:23.194Z,26.73
2018-02-15T15:44:51.442Z,27.20
2018-02-15T15:47:18.918Z,24.43
2018-02-15T15:49:47.266Z,24.83
2018-02-15T15:52:14.738Z,20.57
2018-02-15T15:54:42.225Z,21.90
2018-02-15T15:57:10.488Z,17.67
2018-02-15T15:59:37.970Z,17.33
2018-02-15T16:02:06.231Z,21.60
2018-02-15T16:04:33.791Z,19.30
2018-02-15T16:07:02.056Z,19.33
2018-02-15T16:09:29.633Z,19.27
2018-02-15T16:11:57.939Z,19.97
2018-02-15T16:14:25.421Z,21.47
2018-02-15T16:16:52.895Z,22.83
2018-02-15T16:19:20.383Z,21.50
2018-02-15T16:21:48.621Z,22.33
2018-02-15T16:24:16.113Z,20.80
2018-02-15T16:26:44.367Z,19.47
2018-02-15T16:29:11.843Z,20.00
2018-02-15T16:31:39.321Z,20.07
2018-02-15T16:34:07.570Z,19.13
2018-02-15T16:36:35.056Z,20.83
2018-02-15T16:39:03.926Z,22.00
2018-02-15T16:41:31.406Z,21.70
2018-02-15T16:43:58.945Z,20.40
2018-02-15T16:46:27.222Z,21.10
2018-02-15T16:48:55.512Z,25.83
2018-02-15T16:51:23.760Z,22.73
2018-02-15T16:53:52.062Z,25.60
2018-02-15T16:56:20.382Z,24.70
2018-02-15T16:58:47.896Z,23.77
2018-02-15T17:01:15.455Z,25.73
2018-02-15T17:03:43.731Z,25.87
2018-02-15T17:06:12.008Z,28.07
2018-02-15T17:08:40.385Z,29.40
2018-02-15T17:11:08.648Z,28.47
2018-02-15T17:13:36.467Z,24.83
2018-02-15T17:16:03.947Z,27.90
2018-02-15T17:18:31.443Z,31.10
2018-02-15T17:20:59.690Z,33.00
2018-02-15T17:23:27.167Z,28.10
2018-02-15T17:25:54.693Z,30.40
2018-02-15T17:28:22.158Z,29.00
2018-02-15T17:30:49.650Z,28.83
2018-02-15T17:33:17.921Z,29.90
2018-02-15T17:35:45.522Z,28.47
2018-02-15T17:38:12.998Z,32.07
2018-02-15T17:40:40.486Z,36.07
2018-02-15T17:43:09.470Z,33.90
2018-02-15T17:45:36.944Z,36.87
2018-02-15T17:48:04.426Z,31.17
2018-02-15T17:50:32.670Z,46.83
2018-02-15T17:53:01.654Z,31.83
2018-02-15T17:55:29.248Z,30.13
2018-02-15T17:57:57.485Z,30.80
2018-02-15T18:00:24.965Z,29.57
2018-02-15T18:02:53.221Z,31.40
2018-02-15T18:05:20.699Z,30.37
2018-02-15T18:07:48.947Z,30.43
2018-02-15T18:10:16.451Z,32.50
2018-02-15T18:12:44.695Z,31.00
2018-02-15T18:15:12.175Z,31.70
2018-02-15T18:17:39.672Z,32.20
2018-02-15T18:20:07.143Z,30.87
2018-02-15T18:22:34.627Z,31.03
2018-02-15T18:25:02.149Z,31.13
2018-02-15T18:27:29.671Z,30.13
2018-02-15T18:29:57.914Z,30.70
2018-02-15T18:32:25.514Z,31.77
2018-02-15T18:34:54.271Z,31.40
2018-02-15T18:37:21.750Z,32.10
2018-02-15T18:39:49.248Z,30.03
2018-02-15T18:42:16.778Z,31.87
2018-02-15T18:44:45.024Z,33.53
2018-02-15T18:47:12.514Z,30.97
2018-02-15T18:49:40.762Z,35.10
2018-02-15T18:52:08.354Z,33.80
2018-02-15T18:54:36.773Z,32.20
2018-02-15T18:57:04.299Z,31.60
2018-02-15T18:59:32.673Z,31.80
2018-02-15T19:02:01.036Z,31.40
2018-02-15T19:04:28.511Z,31.50
2018-02-15T19:06:56.769Z,32.13
2018-02-15T19:09:25.070Z,31.67
2018-02-15T19:11:53.320Z,32.17
2018-02-15T19:14:20.903Z,32.83
2018-02-15T19:16:49.183Z,33.33
2018-02-15T19:19:17.436Z,31.70
2018-02-15T19:21:45.009Z,32.37
2018-02-15T19:24:13.265Z,33.60
2018-02-15T19:26:41.522Z,32.53
2018-02-15T19:29:09.018Z,31.00
2018-02-15T19:31:37.290Z,33.90
2018-02-15T19:34:05.547Z,31.40
2018-02-15T19:36:33.030Z,36.27
2018-02-15T19:39:01.286Z,33.60
2018-02-15T19:41:30.272Z,36.93
2018-02-15T19:43:57.804Z,32.43
2018-02-15T19:46:25.294Z,30.87
2018-02-15T19:48:53.550Z,33.53
2018-02-15T19:51:21.037Z,31.90
2018-02-15T19:53:48.541Z,32.13
2018-02-15T19:56:16.030Z,30.50
2018-02-15T19:58:43.526Z,31.50
2018-02-15T20:01:11.789Z,32.20
2018-02-15T20:03:40.047Z,32.47
2018-02-15T20:06:07.643Z,33.30
2018-02-15T20:08:35.901Z,34.40
2018-02-15T20:11:03.398Z,32.87
2018-02-15T20:13:31.397Z,31.77
2018-02-15T20:15:58.883Z,31.60
2018-02-15T20:18:26.366Z,28.80
2018-02-15T20:20:54.615Z,33.57
2018-02-15T20:23:22.107Z,31.97
2018-02-15T20:25:55.359Z,32.67
2018-02-15T20:28:27.079Z,32.80
2018-02-15T20:30:54.769Z,31.27
2018-02-15T20:33:22.976Z,36.80
2018-02-15T20:35:51.599Z,33.90
2018-02-15T20:38:24.823Z,34.00
2018-02-15T20:40:52.500Z,37.50
2018-02-15T20:43:20.890Z,32.20
2018-02-15T20:45:49.210Z,34.13
2018-02-15T20:48:16.820Z,34.73
2018-02-15T20:50:50.756Z,33.10
2018-02-15T20:53:24.022Z,35.57
2018-02-15T20:55:52.358Z,34.93
2018-02-15T20:58:20.017Z,32.97
2018-02-15T21:00:47.647Z,35.20
2018-02-15T21:03:15.412Z,32.40
2018-02-15T21:05:43.243Z,33.37
2018-02-15T21:08:10.851Z,33.27
2018-02-15T21:10:38.544Z,31.00
2018-02-15T21:13:06.297Z,34.80
2018-02-15T21:15:33.983Z,32.80
2018-02-15T21:18:01.501Z,34.43
2018-02-15T21:20:29.077Z,33.87
2018-02-15T21:22:56.841Z,34.17
2018-02-15T21:25:24.390Z,32.60
2018-02-15T21:27:52.166Z,32.03
2018-02-15T21:30:19.967Z,34.50
2018-02-15T21:32:48.410Z,33.33
2018-02-15T21:35:15.928Z,34.13
2018-02-15T21:37:43.665Z,32.93
2018-02-15T21:40:12.812Z,34.20
2018-02-15T21:42:40.444Z,32.80
2018-02-15T21:45:08.852Z,32.23
2018-02-15T21:47:36.477Z,34.20
2018-02-15T21:50:04.198Z,33.33
2018-02-15T21:52:31.998Z,34.50
2018-02-15T21:54:59.742Z,33.53
2018-02-15T21:57:27.327Z,33.70
2018-02-15T21:59:55.973Z,36.07
2018-02-15T22:02:23.472Z,33.07
2018-02-15T22:04:50.941Z,32.57
2018-02-15T22:07:18.448Z,35.10
2018-02-15T22:09:45.929Z,36.13
2018-02-15T22:12:13.409Z,35.97
2018-02-15T22:14:40.992Z,33.80
2018-02-15T22:17:09.241Z,34.37
2018-02-15T22:19:36.723Z,34.77
2018-02-15T22:22:05.007Z,34.57
2018-02-15T22:24:33.251Z,35.90
2018-02-15T22:27:00.754Z,34.23
2018-02-15T22:29:28.298Z,33.73
2018-02-15T22:31:56.568Z,35.47
2018-02-15T22:34:24.139Z,32.77
2018-02-15T22:36:52.390Z,35.03
2018-02-15T22:39:19.867Z,33.47
2018-02-15T22:41:48.120Z,36.00
2018-02-15T22:44:16.418Z,32.37
2018-02-15T22:46:44.694Z,32.97
2018-02-15T22:49:12.930Z,31.90
2018-02-15T22:51:41.543Z,33.25
2018-02-15T22:54:09.804Z,34.40
2018-02-15T22:56:37.276Z,33.80
2018-02-15T22:59:06.286Z,35.10
2018-02-15T23:01:34.576Z,33.60
2018-02-15T23:04:02.176Z,34.80
2018-02-15T23:06:29.929Z,33.47
2018-02-15T23:08:57.429Z,32.30
2018-02-15T23:11:25.020Z,34.07
2018-02-15T23:13:52.562Z,32.67
2018-02-15T23:16:20.805Z,36.07
2018-02-15T23:18:48.297Z,35.20
2018-02-15T23:21:16.555Z,35.70
2018-02-15T23:23:44.139Z,32.37
2018-02-15T23:26:12.470Z,35.60
2018-02-15T23:28:40.019Z,33.27
2018-02-15T23:31:07.623Z,33.00
2018-02-15T23:33:35.259Z,33.10
2018-02-15T23:36:04.653Z,32.53
2018-02-15T23:38:37.194Z,33.03
2018-02-15T23:41:05.571Z,31.17
2018-02-15T23:43:33.162Z,31.50
2018-02-15T23:46:00.775Z,34.23
2018-02-15T23:48:29.292Z,32.03
2018-02-15T23:50:56.930Z,34.70
2018-02-15T23:53:24.768Z,34.37
2018-02-15T23:55:53.046Z,32.30
2018-02-15T23:58:20.529Z,34.83
